createdAt,value
2023-03-06T00:00:48.020Z,59.39
2023-03-06T00:03:17.208Z,60.62
2023-03-06T00:05:45.716Z,60.82
2023-03-06T00:08:15.625Z,60.39
2023-03-06T00:10:44.621Z,61.40
2023-03-06T00:13:15.349Z,60.73
2023-03-06T00:15:43.820Z,60.80
2023-03-06T00:18:12.732Z,60.05
2023-03-06T00:20:42.768Z,60.36
2023-03-06T00:23:12.446Z,59.54
2023-03-06T00:25:45.200Z,59.11
2023-03-06T00:28:15.062Z,59.99
2023-03-06T00:30:44.485Z,60.44
2023-03-06T00:33:13.185Z,61.75
2023-03-06T00:35:42.448Z,62.54
2023-03-06T00:38:13.153Z,62.50
2023-03-06T00:40:41.735Z,62.01
2023-03-06T00:43:11.603Z,60.86
2023-03-06T00:45:40.122Z,61.51
2023-03-06T00:48:10.192Z,60.89
2023-03-06T00:50:39.728Z,60.89
2023-03-06T00:53:08.138Z,60.87
2023-03-06T00:55:36.625Z,61.95
2023-03-06T00:58:05.004Z,62.75
2023-03-06T01:00:34.852Z,62.24
2023-03-06T01:03:03.452Z,63.04
2023-03-06T01:05:33.092Z,62.55
2023-03-06T01:08:01.532Z,62.54
2023-03-06T01:10:30.203Z,63.07
2023-03-06T01:12:58.643Z,62.83
2023-03-06T01:15:28.319Z,63.58
2023-03-06T01:17:58.267Z,63.87
2023-03-06T01:20:26.864Z,63.83
2023-03-06T01:22:56.803Z,63.27
2023-03-06T01:25:25.241Z,63.31
2023-03-06T01:27:54.344Z,62.62
2023-03-06T01:30:22.802Z,62.21
2023-03-06T01:32:51.133Z,61.78
2023-03-06T01:35:21.173Z,62.27
2023-03-06T01:37:49.617Z,61.85
2023-03-06T01:40:18.840Z,62.08
2023-03-06T01:42:50.739Z,62.42
2023-03-06T01:46:07.387Z,63.20
2023-03-06T01:48:36.043Z,64.25
2023-03-06T01:51:06.236Z,64.02
2023-03-06T01:53:34.830Z,64.17
2023-03-06T01:56:03.260Z,64.45
2023-03-06T01:58:31.988Z,64.23
2023-03-06T02:01:00.644Z,63.99
2023-03-06T02:03:31.283Z,64.06
2023-03-06T02:06:00.704Z,64.62
2023-03-06T02:08:31.360Z,64.53
2023-03-06T02:11:07.319Z,64.44
2023-03-06T02:13:35.939Z,64.12
2023-03-06T02:16:04.504Z,63.42
2023-03-06T02:18:34.465Z,63.40
2023-03-06T02:21:05.398Z,63.20
2023-03-06T02:23:43.682Z,62.89
2023-03-06T02:26:15.010Z,62.88
2023-03-06T02:28:43.803Z,62.52
2023-03-06T02:31:23.572Z,62.32
2023-03-06T02:34:07.966Z,62.54
2023-03-06T02:36:42.085Z,62.77
2023-03-06T02:39:10.716Z,63.51
2023-03-06T02:41:41.694Z,63.89
2023-03-06T02:44:10.279Z,64.28
2023-03-06T02:46:38.630Z,64.86
2023-03-06T02:49:07.136Z,65.40
2023-03-06T02:51:35.618Z,65.68
2023-03-06T02:54:04.104Z,66.03
2023-03-06T02:56:32.580Z,65.93
2023-03-06T02:59:02.399Z,65.69
2023-03-06T03:01:30.913Z,65.87
2023-03-06T03:03:59.392Z,66.08
2023-03-06T03:06:28.667Z,65.52
2023-03-06T03:08:57.223Z,65.46
2023-03-06T03:11:25.673Z,65.82
2023-03-06T03:13:54.070Z,66.13
2023-03-06T03:16:26.844Z,66.36
2023-03-06T03:18:59.054Z,66.67
2023-03-06T03:21:28.296Z,67.10
2023-03-06T03:23:57.239Z,67.19
2023-03-06T03:26:28.950Z,67.28
2023-03-06T03:29:09.855Z,67.02
2023-03-06T03:31:39.815Z,67.26
2023-03-06T03:34:08.466Z,67.01
2023-03-06T03:36:40.183Z,67.03
2023-03-06T03:39:10.516Z,66.72
2023-03-06T03:41:39.463Z,66.14
2023-03-06T03:44:09.973Z,65.85
2023-03-06T03:46:40.458Z,65.87
2023-03-06T03:49:13.939Z,65.80
2023-03-06T03:51:42.325Z,65.58
2023-03-06T03:54:11.244Z,65.46
2023-03-06T03:56:45.221Z,65.85
2023-03-06T03:59:25.437Z,66.01
2023-03-06T04:02:18.725Z,66.53
2023-03-06T04:04:55.466Z,67.07
2023-03-06T04:07:23.987Z,67.06
2023-03-06T04:09:52.398Z,67.38
2023-03-06T04:12:20.946Z,67.04
2023-03-06T04:14:49.470Z,67.10
2023-03-06T04:17:20.238Z,66.95
2023-03-06T04:19:49.672Z,67.38
2023-03-06T04:22:18.817Z,67.77
2023-03-06T04:24:48.989Z,67.67
2023-03-06T04:27:18.841Z,67.22
2023-03-06T04:29:47.808Z,66.44
2023-03-06T04:32:16.745Z,66.08
2023-03-06T04:34:47.025Z,66.30
2023-03-06T04:37:20.765Z,66.21
2023-03-06T04:39:49.569Z,66.73
2023-03-06T04:42:17.990Z,67.00
2023-03-06T04:44:46.997Z,67.10
2023-03-06T04:47:16.542Z,67.06
2023-03-06T04:49:48.499Z,67.20
2023-03-06T04:52:16.894Z,67.58
2023-03-06T04:54:46.294Z,67.99
2023-03-06T04:57:15.277Z,67.74
2023-03-06T04:59:43.759Z,67.57
2023-03-06T05:02:12.227Z,68.28
2023-03-06T05:04:40.657Z,67.74
2023-03-06T05:07:10.471Z,68.44
2023-03-06T05:09:39.223Z,68.17
2023-03-06T05:12:08.173Z,67.89
2023-03-06T05:14:36.705Z,67.20
2023-03-06T05:17:05.101Z,67.35
2023-03-06T05:19:33.461Z,67.27
2023-03-06T05:22:01.917Z,66.76
2023-03-06T05:24:31.749Z,66.92
2023-03-06T05:27:01.179Z,66.99
2023-03-06T05:29:29.721Z,67.61
2023-03-06T05:31:59.042Z,67.69
2023-03-06T05:34:27.512Z,68.10
2023-03-06T05:36:55.939Z,67.99
2023-03-06T05:39:24.436Z,67.99
2023-03-06T05:41:54.224Z,67.94
2023-03-06T05:44:24.048Z,68.37
2023-03-06T05:46:52.589Z,67.98
2023-03-06T05:49:20.936Z,68.07
2023-03-06T05:51:49.361Z,68.33
2023-03-06T05:54:17.854Z,67.71
2023-03-06T05:56:46.228Z,67.33
2023-03-06T05:59:15.986Z,67.28
2023-03-06T06:01:45.415Z,66.93
2023-03-06T06:04:13.815Z,66.91
2023-03-06T06:06:42.212Z,66.78
2023-03-06T06:09:13.490Z,66.56
2023-03-06T06:11:42.296Z,66.42
2023-03-06T06:14:10.581Z,66.64
2023-03-06T06:16:40.378Z,67.41
2023-03-06T06:19:09.751Z,67.46
2023-03-06T06:21:38.243Z,67.89
2023-03-06T06:24:07.368Z,68.27
2023-03-06T06:26:36.011Z,67.95
2023-03-06T06:29:05.796Z,68.27
2023-03-06T06:31:34.211Z,68.17
2023-03-06T06:34:04.213Z,67.96
2023-03-06T06:36:32.776Z,68.89
2023-03-06T06:39:01.263Z,68.64
2023-03-06T06:41:50.706Z,68.39
2023-03-06T06:44:19.800Z,68.10
2023-03-06T06:47:21.160Z,67.40
2023-03-06T06:49:40.593Z,67.53
2023-03-06T06:52:09.523Z,66.90
2023-03-06T06:54:37.982Z,66.62
2023-03-06T06:57:06.586Z,66.44
2023-03-06T06:59:35.118Z,66.86
2023-03-06T07:02:03.582Z,66.83
2023-03-06T07:04:32.039Z,66.98
2023-03-06T07:07:02.485Z,67.17
2023-03-06T07:09:31.562Z,67.41
2023-03-06T07:12:00.010Z,67.59
2023-03-06T07:14:28.609Z,67.45
2023-03-06T07:16:57.041Z,67.01
2023-03-06T07:19:25.437Z,66.72
2023-03-06T07:21:53.933Z,66.71
2023-03-06T07:24:23.791Z,66.59
2023-03-06T07:26:52.453Z,66.49
2023-03-06T07:29:21.048Z,66.62
2023-03-06T07:31:49.456Z,66.63
2023-03-06T07:34:17.896Z,67.10
2023-03-06T07:36:46.337Z,66.54
2023-03-06T07:39:14.760Z,66.73
2023-03-06T07:41:44.498Z,66.70
2023-03-06T07:44:12.934Z,66.14
2023-03-06T07:46:41.454Z,66.27
2023-03-06T07:49:09.961Z,66.41
2023-03-06T07:51:38.376Z,66.43
2023-03-06T07:54:06.929Z,66.32
2023-03-06T07:56:35.679Z,65.80
2023-03-06T07:59:05.542Z,65.01
2023-03-06T08:01:34.343Z,63.34
2023-03-06T08:04:02.927Z,62.01
2023-03-06T08:06:31.402Z,61.30
2023-03-06T08:09:00.644Z,60.47
2023-03-06T08:11:31.522Z,58.77
2023-03-06T08:14:00.687Z,58.39
2023-03-06T08:16:32.068Z,57.70
2023-03-06T08:19:00.517Z,57.43
2023-03-06T08:21:29.740Z,57.01
2023-03-06T08:23:58.229Z,56.49
2023-03-06T08:26:28.452Z,55.38
2023-03-06T08:28:58.759Z,54.63
2023-03-06T08:31:30.115Z,55.17
2023-03-06T08:34:03.420Z,55.57
2023-03-06T08:36:32.054Z,54.96
2023-03-06T08:39:02.004Z,55.08
2023-03-06T08:41:30.697Z,54.60
2023-03-06T08:44:00.375Z,54.72
2023-03-06T08:46:30.841Z,54.67
2023-03-06T08:49:00.678Z,55.11
2023-03-06T08:51:29.363Z,56.01
2023-03-06T08:53:58.897Z,54.97
2023-03-06T08:56:28.954Z,55.64
2023-03-06T08:58:58.620Z,55.07
2023-03-06T09:01:28.793Z,55.32
2023-03-06T09:03:59.046Z,55.92
2023-03-06T09:06:31.845Z,55.40
2023-03-06T09:09:00.851Z,53.95
2023-03-06T09:11:29.470Z,53.69
2023-03-06T09:13:58.233Z,53.63
2023-03-06T09:16:27.012Z,52.74
2023-03-06T09:18:55.724Z,53.64
2023-03-06T09:21:25.120Z,52.18
2023-03-06T09:23:54.914Z,53.12
2023-03-06T09:26:32.837Z,52.98
2023-03-06T09:29:08.701Z,53.23
2023-03-06T09:31:37.020Z,52.50
2023-03-06T09:34:05.536Z,51.43
2023-03-06T09:36:45.672Z,51.15
2023-03-06T09:39:24.128Z,51.80
2023-03-06T09:41:53.539Z,51.34
2023-03-06T09:44:26.128Z,50.84
2023-03-06T09:47:21.573Z,50.48
2023-03-06T09:50:12.410Z,50.04
2023-03-06T09:52:52.728Z,50.25
2023-03-06T09:55:27.270Z,50.11
2023-03-06T09:58:02.660Z,50.76
2023-03-06T10:00:36.152Z,49.20
2023-03-06T10:03:17.334Z,48.88
2023-03-06T10:05:50.231Z,48.11
2023-03-06T10:08:28.289Z,48.93
2023-03-06T10:11:03.705Z,47.94
2023-03-06T10:13:40.093Z,47.89
2023-03-06T10:16:18.415Z,47.79
2023-03-06T10:18:47.532Z,48.35
2023-03-06T10:21:31.492Z,47.64
2023-03-06T10:24:11.034Z,46.04
2023-03-06T10:26:46.897Z,45.85
2023-03-06T10:29:43.585Z,45.08
2023-03-06T10:32:18.348Z,45.00
2023-03-06T10:34:47.928Z,44.21
2023-03-06T10:37:21.484Z,45.02
2023-03-06T10:39:56.361Z,44.81
2023-03-06T10:42:29.329Z,45.26
2023-03-06T10:45:10.376Z,43.85
2023-03-06T10:47:40.433Z,44.29
2023-03-06T10:50:24.550Z,44.24
2023-03-06T10:53:05.145Z,44.32
2023-03-06T10:55:35.664Z,43.08
2023-03-06T10:58:23.444Z,42.64
2023-03-06T11:01:04.116Z,41.33
2023-03-06T11:03:32.592Z,40.71
2023-03-06T11:06:08.654Z,40.13
2023-03-06T11:08:38.738Z,40.20
2023-03-06T11:11:09.674Z,40.66
2023-03-06T11:13:41.451Z,39.55
2023-03-06T11:16:20.356Z,39.26
2023-03-06T11:19:00.004Z,38.92
2023-03-06T11:21:31.749Z,37.70
2023-03-06T11:24:05.377Z,37.56
2023-03-06T11:26:42.446Z,38.65
2023-03-06T11:29:28.487Z,36.88
2023-03-06T11:32:05.601Z,34.94
2023-03-06T11:34:43.902Z,34.29
2023-03-06T11:37:17.827Z,34.21
2023-03-06T11:39:51.336Z,33.44
2023-03-06T11:42:23.747Z,33.62
2023-03-06T11:45:05.506Z,34.23
2023-03-06T11:47:37.550Z,34.12
2023-03-06T11:50:18.771Z,34.16
2023-03-06T11:52:52.408Z,32.85
2023-03-06T11:55:31.686Z,33.58
2023-03-06T11:58:20.222Z,32.37
2023-03-06T12:00:59.180Z,32.09
2023-03-06T12:04:00.688Z,31.69
2023-03-06T12:06:39.232Z,33.13
2023-03-06T12:09:25.301Z,32.97
2023-03-06T12:12:05.859Z,33.18
2023-03-06T12:14:49.325Z,31.46
2023-03-06T12:17:26.579Z,31.36
2023-03-06T12:20:11.419Z,31.79
2023-03-06T12:22:58.077Z,31.63
2023-03-06T12:25:36.514Z,31.25
2023-03-06T12:28:22.979Z,30.66
2023-03-06T12:31:10.283Z,30.28
2023-03-06T12:33:50.453Z,31.18
2023-03-06T12:36:30.854Z,30.56
2023-03-06T12:39:10.873Z,30.67
2023-03-06T12:41:47.933Z,31.41
2023-03-06T12:44:51.713Z,31.94
2023-03-06T12:47:23.072Z,32.33
2023-03-06T12:49:57.520Z,31.46
2023-03-06T12:52:30.549Z,31.23
2023-03-06T12:55:23.151Z,31.53
2023-03-06T12:57:52.906Z,31.42
2023-03-06T13:01:04.210Z,31.20
2023-03-06T13:03:45.168Z,30.47
2023-03-06T13:06:50.617Z,29.62
2023-03-06T13:09:21.667Z,29.81
2023-03-06T13:12:14.651Z,29.98
2023-03-06T13:14:56.144Z,29.03
2023-03-06T13:17:45.167Z,29.42
2023-03-06T13:20:35.541Z,29.60
2023-03-06T13:23:41.110Z,29.67
2023-03-06T13:26:33.459Z,30.52
2023-03-06T13:29:01.844Z,29.88
2023-03-06T13:31:51.110Z,29.78
2023-03-06T13:34:36.182Z,29.65
2023-03-06T13:37:39.492Z,29.73
2023-03-06T13:40:36.117Z,29.23
2023-03-06T13:43:27.865Z,29.57
2023-03-06T13:45:56.490Z,29.51
2023-03-06T13:48:47.673Z,29.20
2023-03-06T13:51:24.931Z,28.97
2023-03-06T13:54:30.307Z,29.07
2023-03-06T13:57:18.034Z,29.40
2023-03-06T14:00:16.961Z,29.82
2023-03-06T14:03:24.131Z,30.04
2023-03-06T14:05:53.376Z,29.58
2023-03-06T14:08:24.300Z,29.29
2023-03-06T14:11:02.109Z,29.42
2023-03-06T14:13:46.602Z,29.17
2023-03-06T14:16:23.172Z,29.32
2023-03-06T14:18:53.747Z,29.31
2023-03-06T14:21:31.068Z,29.50
2023-03-06T14:24:00.935Z,29.48
2023-03-06T14:26:33.978Z,29.79
2023-03-06T14:29:04.492Z,29.54
2023-03-06T14:31:37.361Z,29.60
2023-03-06T14:34:07.398Z,29.69
2023-03-06T14:36:37.627Z,29.64
2023-03-06T14:39:14.363Z,29.68
2023-03-06T14:41:43.119Z,29.76
2023-03-06T14:44:22.462Z,30.06
2023-03-06T14:46:55.190Z,30.53
2023-03-06T14:49:25.845Z,30.30
2023-03-06T14:51:56.575Z,30.09
2023-03-06T14:54:29.614Z,30.22
2023-03-06T14:57:03.976Z,30.60
2023-03-06T14:59:36.307Z,30.62
2023-03-06T15:02:08.967Z,30.60
2023-03-06T15:04:42.039Z,30.77
2023-03-06T15:07:14.256Z,30.83
2023-03-06T15:09:45.972Z,30.87
2023-03-06T15:12:37.114Z,30.41
2023-03-06T15:15:32.732Z,30.35
2023-03-06T15:18:03.697Z,30.07
2023-03-06T15:20:44.120Z,30.18
2023-03-06T15:23:19.210Z,29.83
2023-03-06T15:25:55.886Z,29.92
2023-03-06T15:28:34.742Z,29.72
2023-03-06T15:31:19.541Z,30.21
2023-03-06T15:34:15.204Z,30.61
2023-03-06T15:36:45.165Z,31.15
2023-03-06T15:39:33.222Z,30.67
2023-03-06T15:42:04.444Z,30.67
2023-03-06T15:44:34.185Z,31.10
2023-03-06T15:47:08.821Z,31.27
2023-03-06T15:49:40.906Z,31.50
2023-03-06T15:52:09.723Z,31.52
2023-03-06T15:54:38.210Z,31.39
2023-03-06T15:57:09.363Z,31.51
2023-03-06T15:59:44.455Z,31.67
2023-03-06T16:02:17.363Z,31.92
2023-03-06T16:04:48.613Z,32.25
2023-03-06T16:07:17.379Z,32.48
2023-03-06T16:09:46.122Z,32.60
2023-03-06T16:12:17.977Z,32.70
2023-03-06T16:14:47.689Z,32.50
2023-03-06T16:17:16.906Z,32.85
2023-03-06T16:19:47.208Z,32.90
2023-03-06T16:22:15.763Z,32.44
2023-03-06T16:24:44.203Z,32.76
2023-03-06T16:27:19.280Z,32.79
2023-03-06T16:29:48.308Z,32.74
2023-03-06T16:32:16.623Z,32.84
2023-03-06T16:34:46.886Z,33.16
2023-03-06T16:37:15.573Z,33.50
2023-03-06T16:39:43.920Z,33.45
2023-03-06T16:42:12.584Z,33.87
2023-03-06T16:44:40.948Z,33.76
2023-03-06T16:47:12.902Z,33.61
2023-03-06T16:49:41.580Z,34.14
2023-03-06T16:52:12.472Z,34.57
2023-03-06T16:54:41.425Z,34.76
2023-03-06T16:57:14.903Z,34.97
2023-03-06T16:59:43.371Z,35.54
2023-03-06T17:02:12.629Z,35.12
2023-03-06T17:04:41.202Z,35.38
2023-03-06T17:07:13.140Z,35.84
2023-03-06T17:09:41.545Z,36.27
2023-03-06T17:12:11.055Z,36.39
2023-03-06T17:14:39.943Z,36.56
2023-03-06T17:17:08.783Z,36.46
2023-03-06T17:19:37.227Z,36.77
2023-03-06T17:22:05.737Z,36.79
2023-03-06T17:24:36.965Z,36.89
2023-03-06T17:27:06.488Z,37.23
2023-03-06T17:29:34.977Z,37.06
2023-03-06T17:32:03.605Z,37.38
2023-03-06T17:34:32.029Z,37.34
2023-03-06T17:37:01.441Z,37.62
2023-03-06T17:39:33.756Z,37.38
2023-03-06T17:42:03.982Z,37.87
2023-03-06T17:44:32.720Z,37.96
2023-03-06T17:47:04.796Z,38.12
2023-03-06T17:49:33.506Z,37.97
2023-03-06T17:52:03.737Z,38.41
2023-03-06T17:54:33.322Z,38.30
2023-03-06T17:57:05.452Z,38.62
2023-03-06T17:59:35.520Z,38.60
2023-03-06T18:02:03.931Z,38.50
2023-03-06T18:04:32.349Z,38.71
2023-03-06T18:07:00.743Z,38.97
2023-03-06T18:09:29.473Z,39.20
2023-03-06T18:11:58.016Z,39.40
2023-03-06T18:14:27.927Z,39.57
2023-03-06T18:16:56.598Z,39.68
2023-03-06T18:19:25.069Z,39.76
2023-03-06T18:21:53.400Z,39.54
2023-03-06T18:24:21.858Z,39.76
2023-03-06T18:26:50.434Z,40.03
2023-03-06T18:29:18.867Z,40.19
2023-03-06T18:31:50.437Z,40.66
2023-03-06T18:34:19.128Z,40.52
2023-03-06T18:36:50.856Z,40.35
2023-03-06T18:39:21.510Z,40.52
2023-03-06T18:41:49.948Z,41.05
2023-03-06T18:44:19.076Z,40.85
2023-03-06T18:46:48.921Z,40.84
2023-03-06T18:49:17.604Z,40.66
2023-03-06T18:51:48.203Z,40.97
2023-03-06T18:54:16.704Z,40.78
2023-03-06T18:56:45.276Z,41.14
2023-03-06T18:59:18.303Z,40.90
2023-03-06T19:01:49.383Z,41.06
2023-03-06T19:04:17.812Z,41.01
2023-03-06T19:06:47.623Z,41.31
2023-03-06T19:09:16.272Z,41.23
2023-03-06T19:11:46.967Z,40.96
2023-03-06T19:14:15.542Z,41.58
2023-03-06T19:16:43.922Z,41.72
2023-03-06T19:19:14.292Z,41.68
2023-03-06T19:21:42.690Z,41.59
2023-03-06T19:24:14.151Z,41.58
2023-03-06T19:26:43.146Z,41.73
2023-03-06T19:29:11.456Z,42.11
2023-03-06T19:31:40.009Z,42.43
2023-03-06T19:34:08.526Z,41.88
2023-03-06T19:36:40.928Z,41.92
2023-03-06T19:39:09.666Z,42.03
2023-03-06T19:41:38.062Z,41.60
2023-03-06T19:44:07.556Z,42.18
2023-03-06T19:46:36.326Z,41.94
2023-03-06T19:49:11.839Z,42.12
2023-03-06T19:51:41.607Z,42.39
2023-03-06T19:54:11.972Z,42.15
2023-03-06T19:56:40.748Z,42.56
2023-03-06T19:59:09.112Z,42.35
2023-03-06T20:01:38.903Z,42.35
2023-03-06T20:04:07.423Z,42.49
2023-03-06T20:06:36.774Z,43.66
2023-03-06T20:09:09.107Z,43.13
2023-03-06T20:11:37.471Z,42.91
2023-03-06T20:14:08.102Z,42.96
2023-03-06T20:16:37.443Z,41.29
2023-03-06T20:19:07.013Z,42.17
2023-03-06T20:21:38.058Z,43.00
2023-03-06T20:24:10.001Z,42.69
2023-03-06T20:26:38.691Z,42.92
2023-03-06T20:29:07.012Z,43.59
2023-03-06T20:31:35.414Z,43.43
2023-03-06T20:34:05.092Z,43.48
2023-03-06T20:36:37.905Z,43.61
2023-03-06T20:39:10.274Z,44.23
2023-03-06T20:41:38.873Z,43.61
2023-03-06T20:44:09.084Z,43.99
2023-03-06T20:46:37.806Z,45.10
2023-03-06T20:49:06.662Z,44.65
2023-03-06T20:51:39.304Z,44.97
2023-03-06T20:54:11.152Z,45.25
2023-03-06T20:56:41.344Z,45.06
2023-03-06T20:59:11.955Z,45.12
2023-03-06T21:01:42.341Z,45.15
2023-03-06T21:04:13.785Z,45.10
2023-03-06T21:06:45.484Z,45.55
2023-03-06T21:09:16.563Z,45.25
2023-03-06T21:11:45.715Z,45.18
2023-03-06T21:14:14.510Z,45.58
2023-03-06T21:16:43.019Z,45.60
2023-03-06T21:19:11.554Z,46.04
2023-03-06T21:21:39.892Z,46.01
2023-03-06T21:24:08.579Z,45.74
2023-03-06T21:26:38.728Z,46.11
2023-03-06T21:29:07.474Z,45.57
2023-03-06T21:31:36.016Z,45.58
2023-03-06T21:34:05.587Z,45.53
2023-03-06T21:36:34.337Z,45.84
2023-03-06T21:39:06.344Z,45.31
2023-03-06T21:41:35.682Z,45.29
2023-03-06T21:44:06.836Z,45.24
2023-03-06T21:46:35.684Z,44.83
2023-03-06T21:49:06.137Z,44.91
2023-03-06T21:51:34.626Z,45.22
2023-03-06T21:54:03.967Z,45.76
2023-03-06T21:56:33.645Z,45.36
2023-03-06T21:59:02.291Z,45.58
2023-03-06T22:01:32.362Z,46.21
2023-03-06T22:04:01.306Z,46.11
2023-03-06T22:06:32.647Z,45.92
2023-03-06T22:09:01.914Z,46.10
2023-03-06T22:11:34.540Z,45.87
2023-03-06T22:14:03.176Z,46.83
2023-03-06T22:16:33.288Z,46.55
2023-03-06T22:19:01.987Z,46.44
2023-03-06T22:21:30.286Z,47.08
2023-03-06T22:24:00.201Z,47.55
2023-03-06T22:26:29.703Z,47.55
2023-03-06T22:28:58.312Z,47.79
2023-03-06T22:31:29.254Z,48.10
2023-03-06T22:34:01.939Z,48.07
2023-03-06T22:36:31.973Z,48.11
2023-03-06T22:39:02.437Z,48.96
2023-03-06T22:41:31.443Z,49.15
2023-03-06T22:44:01.733Z,49.19
2023-03-06T22:46:31.176Z,48.86
2023-03-06T22:49:02.238Z,49.98
2023-03-06T22:51:31.074Z,50.04
2023-03-06T22:53:59.536Z,49.59
2023-03-06T22:56:28.012Z,50.11
2023-03-06T22:58:57.767Z,49.84
2023-03-06T23:01:30.012Z,49.45
2023-03-06T23:04:01.293Z,48.89
2023-03-06T23:06:31.724Z,48.82
2023-03-06T23:09:02.309Z,49.16
2023-03-06T23:11:31.687Z,49.74
2023-03-06T23:14:20.266Z,49.73
2023-03-06T23:17:07.658Z,49.96
2023-03-06T23:19:56.189Z,50.18
2023-03-06T23:22:43.428Z,50.44
2023-03-06T23:25:30.964Z,49.70
2023-03-06T23:27:59.840Z,50.61
2023-03-06T23:30:28.632Z,50.73
2023-03-06T23:32:57.484Z,50.80
2023-03-06T23:35:27.774Z,50.50
2023-03-06T23:37:56.584Z,50.43
2023-03-06T23:40:25.617Z,50.72
2023-03-06T23:42:54.625Z,51.48
2023-03-06T23:45:23.494Z,51.63
2023-03-06T23:47:52.409Z,51.86
2023-03-06T23:50:21.285Z,53.27
2023-03-06T23:52:53.537Z,52.42
2023-03-06T23:55:23.422Z,52.78
2023-03-06T23:57:52.184Z,52.64
